Time;durP1;ratioP1;P1;durP2;ratioP2;P2;SDS_P1;SDS_P2;PMS_P1;PMS_P2;Temp;Humidity;BMP_temperature;BMP_pressure;BME280_temperature;BME280_humidity;BME280_pressure;Samples;Min_cycle;Max_cycle;Signal;HPM_P1;HPM_P2
2023/02/10 00:01:23;;;;;;;18.93;8.83;;;-2.40;93.30;;;;;;5035887;28;20086;-73
2023/02/10 00:03:50;;;;;;;15.73;7.87;;;-2.30;93.40;;;;;;5037739;28;20029;-74
2023/02/10 00:06:17;;;;;;;21.57;9.00;;;-2.20;93.30;;;;;;5026871;28;20064;-73
2023/02/10 00:08:46;;;;;;;16.57;9.33;;;-2.00;93.10;;;;;;5027981;28;20022;-73
2023/02/10 00:11:12;;;;;;;26.50;9.63;;;-2.00;93.10;;;;;;5033719;28;20055;-73
2023/02/10 00:13:39;;;;;;;21.67;9.18;;;-1.90;93.10;;;;;;5029540;28;20029;-73
2023/02/10 00:16:07;;;;;;;19.20;9.53;;;-2.00;93.30;;;;;;5027319;28;20036;-73
2023/02/10 00:18:33;;;;;;;17.85;8.88;;;-2.00;93.20;;;;;;5040462;28;20030;-73
2023/02/10 00:21:13;;;;;;;21.92;9.70;;;-1.90;93.20;;;;;;5048513;28;20029;-73
2023/02/10 00:23:39;;;;;;;16.87;9.10;;;-2.00;93.30;;;;;;5040760;28;20122;-73
2023/02/10 00:26:06;;;;;;;17.43;8.90;;;-1.90;93.20;;;;;;5032057;28;20064;-73
2023/02/10 00:28:33;;;;;;;17.80;9.07;;;-2.00;93.20;;;;;;5038697;28;20040;-73
2023/02/10 00:30:59;;;;;;;21.93;10.90;;;-2.20;93.50;;;;;;5036995;28;20163;-72
2023/02/10 00:33:24;;;;;;;18.30;8.93;;;-2.30;93.80;;;;;;5045515;28;20128;-73
2023/02/10 00:35:50;;;;;;;19.03;10.03;;;-2.20;93.80;;;;;;5032422;28;20111;-73
2023/02/10 00:38:15;;;;;;;20.33;10.40;;;-2.10;93.80;;;;;;5037084;28;20033;-73
2023/02/10 00:40:41;;;;;;;17.77;9.70;;;-2.10;93.70;;;;;;5040405;28;20029;-72
2023/02/10 00:43:07;;;;;;;22.65;10.40;;;-2.00;93.50;;;;;;5037592;28;20034;-72
2023/02/10 00:45:32;;;;;;;17.97;9.27;;;-1.90;93.40;;;;;;5038803;28;20033;-73
2023/02/10 00:47:58;;;;;;;19.38;9.27;;;-2.20;93.60;;;;;;5038603;28;20029;-73
2023/02/10 00:50:23;;;;;;;16.33;9.80;;;-2.10;93.50;;;;;;5036008;28;20525;-73
2023/02/10 00:52:49;;;;;;;18.83;8.97;;;-2.30;93.40;;;;;;5039291;28;20079;-72
2023/02/10 00:55:15;;;;;;;18.08;8.73;;;-2.30;93.50;;;;;;5038303;28;20091;-73
2023/02/10 00:57:40;;;;;;;15.67;8.43;;;-2.10;93.30;;;;;;5041330;28;20042;-73
2023/02/10 01:00:06;;;;;;;19.77;8.27;;;-2.00;93.10;;;;;;5039454;28;20021;-72
2023/02/10 01:02:32;;;;;;;16.97;9.00;;;-2.20;93.10;;;;;;5032844;28;23756;-73
2023/02/10 01:04:59;;;;;;;20.07;9.90;;;-2.00;92.90;;;;;;5032688;28;20072;-73
2023/02/10 01:07:25;;;;;;;20.77;8.40;;;-2.10;93.00;;;;;;5046340;28;20424;-72
2023/02/10 01:09:50;;;;;;;15.53;7.73;;;-1.90;92.70;;;;;;5030687;28;20108;-73
2023/02/10 01:12:16;;;;;;;15.77;7.87;;;-2.00;92.70;;;;;;5036869;28;20032;-73
2023/02/10 01:14:41;;;;;;;16.60;8.57;;;-1.90;92.50;;;;;;5039615;28;20471;-73
2023/02/10 01:17:07;;;;;;;15.93;7.83;;;-1.90;92.40;;;;;;5036239;28;20491;-73
2023/02/10 01:19:33;;;;;;;16.63;7.90;;;-2.10;92.60;;;;;;5035467;28;20395;-73
2023/02/10 01:21:58;;;;;;;16.57;7.57;;;-2.10;92.60;;;;;;5034287;28;20049;-72
2023/02/10 01:24:24;;;;;;;15.63;8.40;;;-2.10;92.50;;;;;;5037029;28;20091;-73
2023/02/10 01:26:50;;;;;;;16.97;8.57;;;-2.30;93.00;;;;;;5031968;28;20025;-73
2023/02/10 01:29:15;;;;;;;15.63;8.20;;;-2.30;93.00;;;;;;5043373;28;20029;-72
2023/02/10 01:31:41;;;;;;;15.73;8.77;;;-1.90;92.50;;;;;;5031327;28;20034;-73
2023/02/10 01:34:06;;;;;;;16.53;7.67;;;-2.00;92.40;;;;;;5038315;28;20155;-73
2023/02/10 01:36:32;;;;;;;15.47;7.43;;;-1.90;92.10;;;;;;5040246;28;20040;-72
2023/02/10 01:38:58;;;;;;;15.83;7.37;;;-2.00;92.10;;;;;;5032118;28;20084;-73
2023/02/10 01:41:24;;;;;;;12.90;7.07;;;-2.00;92.00;;;;;;5036269;28;20116;-73
2023/02/10 01:44:05;;;;;;;15.23;8.57;;;-2.10;92.10;;;;;;5040574;28;20026;-73
2023/02/10 01:46:33;;;;;;;15.03;7.80;;;-2.10;92.00;;;;;;5035784;28;20025;-73
2023/02/10 01:49:10;;;;;;;18.73;8.60;;;-2.20;92.20;;;;;;5034780;28;20021;-72
2023/02/10 01:51:44;;;;;;;14.47;7.43;;;-2.20;92.30;;;;;;5036478;28;20474;-72
2023/02/10 01:54:15;;;;;;;14.85;7.68;;;-2.10;91.90;;;;;;5030124;28;20026;-73
2023/02/10 01:56:42;;;;;;;15.47;7.33;;;-1.80;91.40;;;;;;5039963;28;20390;-73
2023/02/10 01:59:07;;;;;;;13.80;7.03;;;-1.70;91.10;;;;;;5036011;28;20119;-73
2023/02/10 02:01:33;;;;;;;16.30;7.20;;;-1.70;90.90;;;;;;5032347;28;20473;-74
2023/02/10 02:04:01;;;;;;;15.53;6.87;;;-2.00;91.40;;;;;;5030224;28;20029;-73
2023/02/10 02:06:27;;;;;;;13.93;7.10;;;-2.10;91.80;;;;;;5033075;28;20067;-73
2023/02/10 02:08:53;;;;;;;15.67;7.17;;;-2.30;91.80;;;;;;5030511;28;20064;-73
2023/02/10 02:11:25;;;;;;;15.40;7.13;;;-2.20;91.90;;;;;;5038750;28;20041;-72
2023/02/10 02:14:24;;;;;;;19.07;7.60;;;-2.30;91.80;;;;;;5045935;28;20025;-73
2023/02/10 02:17:01;;;;;;;14.37;6.67;;;-2.30;91.80;;;;;;5035369;28;20052;-74
2023/02/10 02:19:45;;;;;;;15.87;6.77;;;-2.50;92.00;;;;;;5031858;28;20383;-72
2023/02/10 02:22:35;;;;;;;17.93;7.77;;;-2.30;91.70;;;;;;5031704;28;20068;-73
2023/02/10 02:25:07;;;;;;;14.43;6.90;;;-2.30;91.60;;;;;;5035664;28;20287;-74
2023/02/10 02:27:38;;;;;;;14.93;6.50;;;-2.50;91.80;;;;;;5039378;28;20029;-74
2023/02/10 02:30:13;;;;;;;12.67;6.67;;;-2.30;91.30;;;;;;5033697;28;20029;-73
2023/02/10 02:32:53;;;;;;;14.23;8.13;;;-2.20;91.00;;;;;;5034026;28;20521;-73
2023/02/10 02:35:26;;;;;;;14.37;7.07;;;-2.10;90.80;;;;;;5045749;28;20033;-73
2023/02/10 02:37:53;;;;;;;11.17;6.27;;;-2.00;90.60;;;;;;5036002;28;20025;-73
2023/02/10 02:40:20;;;;;;;13.67;6.80;;;-1.90;90.50;;;;;;5029827;28;20036;-73
2023/02/10 02:42:46;;;;;;;15.70;7.13;;;-2.00;90.50;;;;;;5032944;28;20486;-73
2023/02/10 02:45:25;;;;;;;14.07;6.77;;;-1.90;90.30;;;;;;5033820;28;20029;-73
2023/02/10 02:48:11;;;;;;;9.83;5.83;;;-1.90;90.10;;;;;;5040810;28;20036;-73
2023/02/10 02:50:59;;;;;;;14.83;6.30;;;-1.90;90.20;;;;;;5044669;28;20132;-72
2023/02/10 02:53:29;;;;;;;13.60;6.87;;;-1.90;90.30;;;;;;5030667;28;20496;-72
2023/02/10 02:56:03;;;;;;;15.83;6.80;;;-1.90;90.10;;;;;;5031868;28;20083;-73
2023/02/10 02:58:50;;;;;;;15.77;7.27;;;-1.60;89.00;;;;;;5029691;28;20080;-73
2023/02/10 03:01:44;;;;;;;11.40;5.17;;;-1.50;88.90;;;;;;5036526;28;20040;-73
2023/02/10 03:04:13;;;;;;;16.07;6.57;;;-1.60;88.90;;;;;;5033761;28;20734;-73
2023/02/10 03:06:39;;;;;;;14.17;6.40;;;-1.60;88.60;;;;;;5035332;28;20025;-73
2023/02/10 03:09:04;;;;;;;11.57;6.00;;;-1.60;88.80;;;;;;5040325;28;20025;-73
2023/02/10 03:11:30;;;;;;;10.50;5.27;;;-1.50;88.60;;;;;;5038567;28;20029;-73
2023/02/10 03:13:56;;;;;;;23.50;6.40;;;-1.70;89.00;;;;;;5036671;28;20064;-72
2023/02/10 03:16:21;;;;;;;15.13;6.50;;;-1.60;88.30;;;;;;5029587;28;20654;-73
2023/02/10 03:18:47;;;;;;;12.77;5.80;;;-1.60;89.10;;;;;;5038389;28;20025;-74
2023/02/10 03:21:13;;;;;;;13.33;6.00;;;-1.70;88.40;;;;;;5038486;28;20041;-73
2023/02/10 03:23:38;;;;;;;14.90;7.13;;;-1.80;88.90;;;;;;5040354;28;20124;-73
2023/02/10 03:26:05;;;;;;;11.27;5.47;;;-2.00;89.50;;;;;;5037484;28;20033;-72
2023/02/10 03:28:30;;;;;;;14.40;5.13;;;-2.10;90.20;;;;;;5028565;28;20025;-72
2023/02/10 03:30:56;;;;;;;8.57;4.93;;;-2.00;89.20;;;;;;5035625;28;20029;-73
2023/02/10 03:33:22;;;;;;;12.17;5.80;;;-1.90;89.10;;;;;;5028912;28;20034;-73
2023/02/10 03:35:49;;;;;;;12.60;6.13;;;-1.90;89.70;;;;;;5028486;28;20123;-72
2023/02/10 03:38:15;;;;;;;11.63;6.10;;;-2.00;89.30;;;;;;5029524;28;20606;-73
2023/02/10 03:40:41;;;;;;;12.70;6.87;;;-2.10;90.00;;;;;;5031288;28;20104;-73
2023/02/10 03:43:07;;;;;;;12.77;4.60;;;-2.20;89.90;;;;;;5035648;28;20026;-73
2023/02/10 03:45:33;;;;;;;9.43;4.23;;;-2.10;89.70;;;;;;5040960;28;20164;-73
2023/02/10 03:47:58;;;;;;;9.97;4.50;;;-2.20;90.00;;;;;;5038480;28;20033;-72
2023/02/10 03:50:25;;;;;;;16.83;8.27;;;-2.20;90.00;;;;;;5036721;28;20022;-73
2023/02/10 03:52:50;;;;;;;10.93;5.83;;;-2.30;91.20;;;;;;5039485;28;20025;-72
2023/02/10 03:55:19;;;;;;;14.83;4.90;;;-2.40;90.50;;;;;;5035027;28;20399;-73
2023/02/10 03:57:45;;;;;;;17.07;6.43;;;-2.30;90.10;;;;;;5039457;28;20132;-73
2023/02/10 04:00:12;;;;;;;11.70;5.50;;;-2.20;89.70;;;;;;5036457;28;20032;-71
2023/02/10 04:02:39;;;;;;;10.37;5.20;;;-2.20;90.10;;;;;;5042226;28;20042;-71
2023/02/10 04:05:05;;;;;;;9.93;5.37;;;-2.00;89.20;;;;;;5032461;28;20452;-72
2023/02/10 04:07:30;;;;;;;10.90;4.57;;;-1.90;88.90;;;;;;5028234;28;20093;-72
2023/02/10 04:09:56;;;;;;;9.37;5.53;;;-1.90;88.60;;;;;;5028510;28;20495;-72
2023/02/10 04:12:22;;;;;;;7.83;5.17;;;-2.00;89.70;;;;;;5033977;28;20482;-72
2023/02/10 04:14:47;;;;;;;12.13;4.77;;;-1.90;89.40;;;;;;5029803;28;20029;-72
2023/02/10 04:17:13;;;;;;;9.30;4.60;;;-2.10;89.30;;;;;;5037352;28;20040;-72
2023/02/10 04:19:39;;;;;;;9.73;4.70;;;-2.00;89.40;;;;;;5036461;28;20025;-72
2023/02/10 04:22:04;;;;;;;11.13;5.43;;;-2.10;89.30;;;;;;5036717;28;20029;-72
2023/02/10 04:24:30;;;;;;;10.77;5.10;;;-2.10;89.20;;;;;;5038816;28;20025;-72
2023/02/10 04:26:56;;;;;;;12.83;5.20;;;-2.00;88.80;;;;;;5030529;28;20068;-72
2023/02/10 04:29:22;;;;;;;11.67;6.13;;;-2.10;88.90;;;;;;5030998;28;20039;-72
2023/02/10 04:31:48;;;;;;;12.50;6.27;;;-2.00;89.60;;;;;;5029316;28;20111;-72
2023/02/10 04:34:14;;;;;;;13.20;6.20;;;-2.20;89.10;;;;;;5034696;28;20083;-72
2023/02/10 04:36:39;;;;;;;13.63;5.77;;;-2.10;88.60;;;;;;5028024;28;20033;-71
2023/02/10 04:39:05;;;;;;;11.80;6.03;;;-2.00;88.90;;;;;;5024770;28;20367;-71
2023/02/10 04:41:31;;;;;;;8.17;5.03;;;-2.20;89.70;;;;;;5024770;28;20021;-71
2023/02/10 04:43:56;;;;;;;10.17;4.90;;;-2.00;88.40;;;;;;5029421;28;20041;-72
2023/02/10 04:46:22;;;;;;;13.30;5.77;;;-2.00;88.40;;;;;;5028356;28;20116;-71
2023/02/10 04:48:48;;;;;;;10.93;4.70;;;-1.90;88.30;;;;;;5033357;28;20033;-71
2023/02/10 04:51:13;;;;;;;11.27;5.20;;;-1.90;88.10;;;;;;5035862;28;20047;-71
2023/02/10 04:53:43;;;;;;;8.87;4.60;;;-1.90;88.70;;;;;;5042033;28;20041;-72
2023/02/10 04:56:08;;;;;;;12.80;5.80;;;-2.00;88.70;;;;;;5034310;28;20032;-71
2023/02/10 04:58:34;;;;;;;15.87;5.73;;;-2.20;89.10;;;;;;5030315;28;20382;-72
2023/02/10 05:01:00;;;;;;;13.07;5.43;;;-2.40;89.30;;;;;;5036014;28;20041;-71
2023/02/10 05:03:26;;;;;;;11.50;5.97;;;-2.20;89.30;;;;;;5037023;28;20044;-71
2023/02/10 05:05:52;;;;;;;13.83;5.83;;;-2.20;89.10;;;;;;5033156;28;20207;-71
2023/02/10 05:08:23;;;;;;;12.53;5.53;;;-2.10;89.00;;;;;;5026924;28;20034;-71
2023/02/10 05:10:52;;;;;;;8.53;5.87;;;-2.20;88.40;;;;;;5030395;28;20025;-72
2023/02/10 05:13:19;;;;;;;10.43;5.40;;;-2.30;89.70;;;;;;5029561;28;20033;-71
2023/02/10 05:15:45;;;;;;;10.60;5.63;;;-2.40;89.50;;;;;;5031674;28;20124;-71
2023/02/10 05:18:11;;;;;;;9.20;4.60;;;-2.30;89.30;;;;;;5032268;28;20033;-71
2023/02/10 05:20:37;;;;;;;12.07;5.73;;;-2.40;89.10;;;;;;5032769;28;20049;-72
2023/02/10 05:23:02;;;;;;;10.67;5.17;;;-2.30;88.90;;;;;;5022292;28;20072;-71
2023/02/10 05:25:28;;;;;;;10.87;4.73;;;-2.20;88.90;;;;;;5023446;28;20485;-71
2023/02/10 05:27:54;;;;;;;11.57;5.97;;;-2.40;89.70;;;;;;5033503;28;20094;-71
2023/02/10 05:30:19;;;;;;;10.65;5.35;;;-2.40;89.50;;;;;;5030529;28;20037;-72
2023/02/10 05:32:45;;;;;;;8.38;4.72;;;-2.30;89.30;;;;;;5034116;28;20107;-72
2023/02/10 05:35:11;;;;;;;12.97;5.33;;;-2.30;89.00;;;;;;5030594;28;20021;-71
2023/02/10 05:37:36;;;;;;;10.30;5.00;;;-2.30;89.50;;;;;;5029466;28;20143;-71
2023/02/10 05:40:02;;;;;;;12.00;5.67;;;-2.40;89.30;;;;;;5036443;28;20456;-72
2023/02/10 05:42:28;;;;;;;12.70;5.13;;;-2.50;90.10;;;;;;5029031;28;20051;-71
2023/02/10 05:44:54;;;;;;;10.40;4.63;;;-2.70;90.20;;;;;;5033926;28;20496;-71
2023/02/10 05:47:19;;;;;;;11.80;4.93;;;-2.80;90.20;;;;;;5029005;28;20041;-72
2023/02/10 05:49:45;;;;;;;13.03;4.97;;;-2.30;89.40;;;;;;5032441;28;20029;-72
2023/02/10 05:52:11;;;;;;;8.40;5.10;;;-2.30;88.90;;;;;;5023740;28;20037;-72
2023/02/10 05:54:36;;;;;;;11.27;5.47;;;-2.30;89.10;;;;;;5025573;28;20210;-72
2023/02/10 05:57:02;;;;;;;10.83;5.10;;;-2.20;88.60;;;;;;5025324;28;20022;-73
2023/02/10 05:59:28;;;;;;;17.53;4.67;;;-2.40;89.50;;;;;;5032554;28;20618;-73
2023/02/10 06:01:54;;;;;;;8.10;4.00;;;-2.40;89.40;;;;;;5026578;28;20033;-73
2023/02/10 06:04:20;;;;;;;11.60;5.47;;;-2.50;89.10;;;;;;5029943;28;20349;-74
2023/02/10 06:06:45;;;;;;;10.70;5.27;;;-2.40;89.30;;;;;;5031214;28;20416;-74
2023/02/10 06:09:11;;;;;;;9.10;4.97;;;-2.70;90.10;;;;;;5024547;28;20117;-73
2023/02/10 06:11:36;;;;;;;10.00;5.07;;;-2.70;89.80;;;;;;5029592;28;20174;-73
2023/02/10 06:14:02;;;;;;;10.10;4.17;;;-2.50;89.10;;;;;;5028132;28;20450;-74
2023/02/10 06:16:28;;;;;;;8.97;3.63;;;-2.60;89.40;;;;;;5031669;28;20039;-73
2023/02/10 06:18:54;;;;;;;13.17;5.37;;;-2.70;89.90;;;;;;5034515;28;20108;-73
2023/02/10 06:21:22;;;;;;;11.30;5.27;;;-3.00;90.20;;;;;;5024625;28;20021;-73
2023/02/10 06:23:48;;;;;;;11.87;5.60;;;-2.90;90.40;;;;;;5030283;28;20440;-73
2023/02/10 06:26:14;;;;;;;9.87;4.63;;;-2.70;89.90;;;;;;5023309;28;20041;-74
2023/02/10 06:28:40;;;;;;;10.40;5.00;;;-2.80;90.10;;;;;;5027406;28;20021;-74
2023/02/10 06:31:07;;;;;;;8.70;4.20;;;-3.00;90.50;;;;;;5029987;28;20021;-73
2023/02/10 06:33:35;;;;;;;13.43;5.80;;;-3.10;90.50;;;;;;5022497;28;20435;-73
2023/02/10 06:36:05;;;;;;;11.73;5.70;;;-3.20;90.80;;;;;;5022335;28;20052;-73
2023/02/10 06:38:40;;;;;;;10.27;5.03;;;-3.30;90.80;;;;;;5057080;28;20489;-72
2023/02/10 06:41:06;;;;;;;8.70;3.90;;;-2.90;90.30;;;;;;5037662;28;20439;-70
2023/02/10 06:43:32;;;;;;;8.53;4.27;;;-2.80;90.00;;;;;;5033284;28;20033;-73
2023/02/10 06:45:58;;;;;;;8.93;5.07;;;-2.60;91.30;;;;;;5032785;28;20462;-72
2023/02/10 06:48:23;;;;;;;11.40;4.67;;;-2.40;89.00;;;;;;5032499;28;20057;-71
2023/02/10 06:50:49;;;;;;;10.97;4.63;;;-2.50;89.10;;;;;;5032578;28;20498;-72
2023/02/10 06:53:15;;;;;;;9.90;4.47;;;-2.40;89.10;;;;;;5034950;28;20796;-72
2023/02/10 06:55:40;;;;;;;8.53;4.40;;;-2.80;90.00;;;;;;5039572;28;20770;-72
2023/02/10 06:58:06;;;;;;;11.20;4.30;;;-2.90;90.20;;;;;;5033476;28;20088;-72
2023/02/10 07:00:32;;;;;;;12.80;5.33;;;-2.80;90.10;;;;;;5033001;28;20241;-71
2023/02/10 07:02:58;;;;;;;12.43;5.60;;;-2.90;90.40;;;;;;5067803;28;20033;-73
2023/02/10 07:05:24;;;;;;;8.30;4.30;;;-3.00;90.50;;;;;;5034842;28;20084;-73
2023/02/10 07:07:50;;;;;;;10.53;4.20;;;-3.00;90.40;;;;;;5034660;28;20035;-71
2023/02/10 07:10:17;;;;;;;10.30;4.80;;;-2.80;90.10;;;;;;5035070;28;20037;-71
2023/02/10 07:12:44;;;;;;;11.50;5.50;;;-2.80;89.80;;;;;;5035188;28;20108;-72
2023/02/10 07:15:09;;;;;;;9.93;4.57;;;-2.70;90.20;;;;;;5037853;28;20522;-72
2023/02/10 07:17:36;;;;;;;11.27;4.57;;;-2.50;88.50;;;;;;5036739;28;20167;-72
2023/02/10 07:20:03;;;;;;;10.43;4.97;;;-2.50;89.10;;;;;;5031392;28;20040;-72
2023/02/10 07:22:29;;;;;;;11.20;4.57;;;-2.60;89.60;;;;;;5035617;28;20033;-72
2023/02/10 07:24:55;;;;;;;12.43;5.17;;;-2.60;90.00;;;;;;5036922;28;20063;-72
2023/02/10 07:27:21;;;;;;;9.43;4.27;;;-2.60;89.60;;;;;;5033315;28;20191;-71
2023/02/10 07:29:47;;;;;;;10.70;5.17;;;-2.60;90.10;;;;;;5032241;28;20151;-71
2023/02/10 07:32:12;;;;;;;14.73;6.17;;;-2.80;90.00;;;;;;5034821;28;20458;-72
2023/02/10 07:34:40;;;;;;;8.80;4.43;;;-2.60;89.40;;;;;;5029048;28;20029;-72
2023/02/10 07:37:06;;;;;;;14.30;4.83;;;-2.50;89.60;;;;;;5032995;28;20045;-72
2023/02/10 07:39:31;;;;;;;10.67;5.50;;;-2.20;87.90;;;;;;5035285;28;20356;-72
2023/02/10 07:41:57;;;;;;;10.17;5.23;;;-2.10;87.80;;;;;;5032747;28;20029;-72
2023/02/10 07:44:23;;;;;;;11.10;4.93;;;-2.10;87.90;;;;;;5021280;28;20094;-72
2023/02/10 07:46:51;;;;;;;8.20;3.90;;;-2.10;88.00;;;;;;5028185;28;20041;-72
2023/02/10 07:49:16;;;;;;;11.87;4.57;;;-2.00;87.10;;;;;;5024122;28;20065;-73
2023/02/10 07:51:43;;;;;;;10.07;5.43;;;-1.90;87.80;;;;;;5022080;28;20372;-72
2023/02/10 07:54:11;;;;;;;7.83;4.63;;;-1.90;87.10;;;;;;5021486;28;20033;-72
2023/02/10 07:56:37;;;;;;;10.40;4.87;;;-1.80;86.80;;;;;;5022224;28;20034;-72
2023/02/10 07:59:03;;;;;;;13.37;5.33;;;-1.70;86.30;;;;;;5019191;28;20045;-71
2023/02/10 08:01:29;;;;;;;9.60;4.60;;;-1.70;86.30;;;;;;5014954;28;20034;-70
2023/02/10 08:03:56;;;;;;;11.87;5.10;;;-1.70;86.60;;;;;;5021181;28;20029;-72
2023/02/10 08:06:24;;;;;;;8.77;5.07;;;-1.90;87.50;;;;;;5021466;28;20080;-72
2023/02/10 08:08:50;;;;;;;9.67;4.20;;;-1.70;86.20;;;;;;5022162;28;20112;-72
2023/02/10 08:11:16;;;;;;;10.37;3.73;;;-1.60;85.90;;;;;;5021227;28;20039;-71
2023/02/10 08:13:42;;;;;;;9.17;4.53;;;-1.70;85.70;;;;;;5021020;28;20044;-71
2023/02/10 08:16:10;;;;;;;10.80;4.47;;;-1.50;85.70;;;;;;5018376;28;20033;-72
2023/02/10 08:18:37;;;;;;;10.47;4.93;;;-1.40;85.20;;;;;;5021312;28;20096;-72
2023/02/10 08:21:03;;;;;;;10.20;5.03;;;-1.70;86.50;;;;;;5026509;28;20044;-72
2023/02/10 08:23:30;;;;;;;10.13;4.37;;;-1.80;87.70;;;;;;5024918;28;20036;-72
2023/02/10 08:25:56;;;;;;;11.70;6.00;;;-1.90;88.30;;;;;;5024793;28;20044;-72
2023/02/10 08:28:22;;;;;;;7.97;4.37;;;-1.90;87.40;;;;;;5023509;28;20110;-72
2023/02/10 08:30:47;;;;;;;11.23;4.37;;;-1.90;87.90;;;;;;5020688;28;20120;-72
2023/02/10 08:33:13;;;;;;;11.77;5.07;;;-1.80;88.70;;;;;;5024046;28;20025;-72
2023/02/10 08:35:39;;;;;;;11.93;5.60;;;-1.40;87.80;;;;;;5025756;28;20029;-71
2023/02/10 08:38:06;;;;;;;27.27;12.23;;;-1.50;87.40;;;;;;5025476;28;20037;-71
2023/02/10 08:40:32;;;;;;;16.67;8.50;;;-1.60;87.80;;;;;;5024291;28;20365;-71
2023/02/10 08:42:59;;;;;;;9.47;4.83;;;-1.60;89.10;;;;;;5016906;28;20032;-72
2023/02/10 08:45:25;;;;;;;10.23;4.90;;;-1.70;88.00;;;;;;5018545;28;20033;-71
2023/02/10 08:47:50;;;;;;;9.10;5.23;;;-1.80;88.30;;;;;;5020927;28;20037;-71
2023/02/10 08:50:16;;;;;;;8.23;4.07;;;-1.90;89.80;;;;;;5018130;28;20108;-71
2023/02/10 08:52:42;;;;;;;9.07;4.53;;;-1.90;90.30;;;;;;5021567;28;20037;-72
2023/02/10 08:55:07;;;;;;;11.10;4.70;;;-2.00;90.10;;;;;;5025092;28;20483;-71
2023/02/10 08:57:34;;;;;;;10.77;4.90;;;-1.80;90.50;;;;;;5019560;28;20068;-72
2023/02/10 09:00:00;;;;;;;8.73;4.00;;;-1.70;89.30;;;;;;5022172;28;20118;-72
2023/02/10 09:02:26;;;;;;;16.03;6.47;;;-1.70;88.50;;;;;;5021878;28;20040;-72
2023/02/10 09:04:51;;;;;;;15.00;5.73;;;-1.80;88.20;;;;;;5016287;28;20025;-72
2023/02/10 09:07:17;;;;;;;9.90;4.47;;;-1.70;88.50;;;;;;5023631;28;20030;-72
2023/02/10 09:09:43;;;;;;;10.37;5.90;;;-1.70;88.70;;;;;;5026209;28;20080;-72
2023/02/10 09:12:11;;;;;;;11.67;5.00;;;-1.70;88.70;;;;;;5022653;28;20051;-72
2023/02/10 09:14:38;;;;;;;8.47;4.53;;;-1.60;89.40;;;;;;5019838;28;20039;-71
2023/02/10 09:17:04;;;;;;;9.43;4.67;;;-1.60;89.50;;;;;;5020977;28;20483;-71
2023/02/10 09:19:30;;;;;;;9.83;4.93;;;-1.50;88.70;;;;;;5022985;28;20646;-72
2023/02/10 09:21:56;;;;;;;25.40;10.50;;;-1.50;88.20;;;;;;5022065;28;20029;-71
2023/02/10 09:24:23;;;;;;;38.23;17.37;;;-1.40;86.90;;;;;;5022885;28;20033;-72
2023/02/10 09:26:48;;;;;;;27.87;14.37;;;-1.20;87.50;;;;;;5027362;28;20483;-72
2023/02/10 09:29:14;;;;;;;35.90;14.87;;;-1.10;86.70;;;;;;5016492;28;20056;-72
2023/02/10 09:31:40;;;;;;;14.50;6.97;;;-1.10;86.40;;;;;;5014614;28;20030;-72
2023/02/10 09:34:06;;;;;;;13.90;6.27;;;-1.00;86.90;;;;;;5010635;28;20030;-72
2023/02/10 09:36:31;;;;;;;22.10;9.33;;;-0.90;87.50;;;;;;5023499;28;20067;-71
2023/02/10 09:38:57;;;;;;;24.45;10.63;;;-0.80;87.50;;;;;;5021750;28;20037;-71
2023/02/10 09:41:36;;;;;;;17.43;8.57;;;-0.70;86.70;;;;;;5023865;28;20038;-72
2023/02/10 09:44:19;;;;;;;16.30;8.00;;;-0.80;85.80;;;;;;5022331;28;20091;-72
2023/02/10 09:46:54;;;;;;;23.53;10.17;;;-0.80;85.80;;;;;;5010945;28;20111;-72
2023/02/10 09:49:44;;;;;;;18.63;9.48;;;-0.80;86.40;;;;;;5017899;28;20038;-71
2023/02/10 09:52:22;;;;;;;22.60;7.30;;;-0.70;86.10;;;;;;5005302;28;20853;-72
2023/02/10 09:54:49;;;;;;;14.13;6.72;;;-0.60;86.00;;;;;;5007666;28;20672;-72
2023/02/10 09:57:19;;;;;;;17.53;8.93;;;-0.50;86.00;;;;;;5009761;28;20062;-71
2023/02/10 09:59:47;;;;;;;11.38;6.18;;;-0.50;87.10;;;;;;5021305;28;20028;-72
2023/02/10 10:02:27;;;;;;;17.80;11.20;;;-0.40;86.20;;;;;;5028221;28;20059;-71
2023/02/10 10:04:53;;;;;;;21.48;10.80;;;-0.30;86.00;;;;;;5008315;28;20542;-72
2023/02/10 10:07:29;;;;;;;16.30;8.50;;;-0.20;86.20;;;;;;5019063;28;20033;-72
2023/02/10 10:10:03;;;;;;;17.65;9.00;;;-0.10;86.30;;;;;;5021188;28;20084;-72
2023/02/10 10:12:29;;;;;;;22.50;11.80;;;0.00;86.80;;;;;;5013706;28;20048;-72
2023/02/10 10:14:56;;;;;;;13.37;6.47;;;0.10;86.30;;;;;;5026992;28;20100;-73
2023/02/10 10:17:46;;;;;;;15.73;8.10;;;0.20;85.90;;;;;;5023458;28;20412;-72
2023/02/10 10:20:31;;;;;;;15.77;6.88;;;0.20;86.10;;;;;;5021528;28;20483;-71
2023/02/10 10:23:21;;;;;;;11.52;6.25;;;0.20;85.40;;;;;;5017860;28;22088;-71
2023/02/10 10:25:55;;;;;;;13.07;6.10;;;0.20;85.80;;;;;;5014882;28;20038;-71
2023/02/10 10:28:58;;;;;;;18.17;12.15;;;0.20;85.50;;;;;;5016227;28;20033;-71
2023/02/10 10:31:30;;;;;;;17.77;10.38;;;0.30;85.70;;;;;;5014250;28;20053;-72
2023/02/10 10:34:01;;;;;;;12.05;5.93;;;0.50;85.90;;;;;;5021386;28;20033;-72
2023/02/10 10:36:58;;;;;;;19.77;8.68;;;0.50;85.00;;;;;;5022350;28;20072;-71
2023/02/10 10:39:33;;;;;;;12.70;6.80;;;0.70;85.70;;;;;;5011337;28;20650;-71
2023/02/10 10:42:21;;;;;;;12.63;5.65;;;0.90;86.10;;;;;;5009720;28;20035;-71
2023/02/10 10:44:48;;;;;;;15.85;6.38;;;1.00;85.10;;;;;;5021723;28;20038;-71
2023/02/10 10:47:19;;;;;;;11.07;6.13;;;1.00;84.70;;;;;;5021638;28;20022;-71
2023/02/10 10:49:45;;;;;;;13.40;6.70;;;1.10;83.90;;;;;;5024008;28;20030;-71
2023/02/10 10:52:35;;;;;;;15.40;7.00;;;1.10;84.10;;;;;;5023479;28;20108;-72
2023/02/10 10:55:05;;;;;;;14.85;7.25;;;1.40;86.00;;;;;;5023944;28;20509;-72
2023/02/10 10:57:33;;;;;;;53.95;10.35;;;1.50;84.10;;;;;;5019376;28;20034;-72
2023/02/10 11:00:21;;;;;;;24.10;9.20;;;1.70;84.00;;;;;;5017319;28;20061;-71
2023/02/10 11:03:00;;;;;;;15.20;8.32;;;2.00;82.50;;;;;;5019475;28;20465;-72
2023/02/10 11:05:32;;;;;;;13.73;7.35;;;1.80;81.80;;;;;;5013864;28;21199;-71
2023/02/10 11:08:00;;;;;;;9.63;5.00;;;1.70;82.20;;;;;;5017417;28;20108;-71
2023/02/10 11:10:27;;;;;;;9.43;4.80;;;1.70;81.50;;;;;;5019896;28;20021;-71
2023/02/10 11:12:54;;;;;;;11.20;5.85;;;1.50;81.10;;;;;;5017524;28;20061;-72
2023/02/10 11:15:41;;;;;;;10.48;5.28;;;1.50;81.30;;;;;;5017018;28;20037;-73
2023/02/10 11:18:17;;;;;;;15.30;8.15;;;1.70;81.80;;;;;;5019197;28;23810;-72
2023/02/10 11:21:11;;;;;;;20.25;10.18;;;1.90;80.90;;;;;;5018355;28;20041;-72
2023/02/10 11:23:53;;;;;;;14.73;5.90;;;2.10;81.30;;;;;;5018883;28;20041;-71
2023/02/10 11:26:26;;;;;;;12.07;5.25;;;2.00;79.70;;;;;;5019758;28;20350;-71
2023/02/10 11:28:53;;;;;;;16.25;6.20;;;2.00;79.70;;;;;;5015084;28;20029;-71
2023/02/10 11:31:28;;;;;;;12.60;7.50;;;2.10;80.50;;;;;;5017852;28;20109;-74
2023/02/10 11:34:21;;;;;;;15.02;6.88;;;2.50;81.50;;;;;;5051148;28;20029;-72
2023/02/10 11:36:50;;;;;;;11.93;5.60;;;2.90;80.20;;;;;;5012489;28;20583;-71
2023/02/10 11:39:39;;;;;;;12.85;6.13;;;2.60;79.60;;;;;;5014227;28;20092;-70
2023/02/10 11:42:17;;;;;;;10.88;5.63;;;2.90;81.00;;;;;;5022487;28;20029;-70
2023/02/10 11:45:00;;;;;;;12.63;5.47;;;3.00;79.70;;;;;;5024501;28;20483;-71
2023/02/10 11:47:29;;;;;;;11.35;5.00;;;2.90;78.60;;;;;;5022386;28;20025;-71
2023/02/10 11:49:55;;;;;;;12.85;6.00;;;2.80;78.00;;;;;;5025899;28;20041;-71
2023/02/10 11:52:22;;;;;;;12.02;5.75;;;2.90;78.50;;;;;;5025891;28;20092;-71
2023/02/10 11:54:50;;;;;;;13.20;5.50;;;3.20;79.60;;;;;;5010683;28;20045;-71
2023/02/10 12:00:28;;;;;;;9.30;4.18;;;3.60;78.80;;;;;;5009406;28;20204;-71
2023/02/10 12:03:00;;;;;;;10.07;5.28;;;3.50;77.00;;;;;;5012406;28;20051;-71
2023/02/10 12:05:37;;;;;;;8.63;5.07;;;3.40;76.70;;;;;;5018166;28;20029;-71
2023/02/10 12:08:29;;;;;;;10.40;4.80;;;3.50;76.80;;;;;;5009847;28;20038;-71
2023/02/10 12:11:13;;;;;;;10.88;4.88;;;3.40;76.40;;;;;;5013094;28;20038;-71
2023/02/10 12:13:51;;;;;;;20.67;4.70;;;3.60;75.80;;;;;;5019893;28;20039;-71
2023/02/10 12:16:41;;;;;;;8.93;4.90;;;3.60;75.80;;;;;;5018149;28;20288;-71
2023/02/10 12:19:27;;;;;;;10.93;7.28;;;3.70;75.80;;;;;;5015902;28;20037;-72
2023/02/10 12:22:39;;;;;;;12.18;5.43;;;4.10;75.70;;;;;;5014030;28;20108;-71
2023/02/10 12:25:19;;;;;;;18.77;5.80;;;4.60;75.90;;;;;;5025057;28;20949;-71
2023/02/10 12:28:14;;;;;;;10.45;5.10;;;5.00;76.60;;;;;;5010425;28;20125;-71
2023/02/10 12:30:42;;;;;;;14.05;7.05;;;5.00;75.00;;;;;;5022580;28;20057;-71
2023/02/10 12:33:26;;;;;;;16.85;6.20;;;4.80;74.30;;;;;;5025376;28;20028;-71
2023/02/10 12:36:16;;;;;;;12.40;6.35;;;4.80;74.00;;;;;;5026953;28;20499;-70
2023/02/10 12:39:21;;;;;;;9.98;5.00;;;4.90;75.00;;;;;;5021828;28;20041;-71
2023/02/10 12:42:01;;;;;;;8.90;3.97;;;4.90;74.70;;;;;;5002187;28;20548;-71
2023/02/10 12:44:36;;;;;;;8.30;4.32;;;4.70;74.30;;;;;;5021448;28;20615;-71
2023/02/10 12:47:19;;;;;;;10.23;5.15;;;4.80;74.50;;;;;;5022741;28;20029;-71
2023/02/10 12:49:44;;;;;;;10.35;5.03;;;4.80;73.90;;;;;;5018448;28;20033;-71
2023/02/10 12:52:39;;;;;;;11.00;4.47;;;5.10;73.90;;;;;;5024764;28;20045;-71
2023/02/10 12:55:17;;;;;;;11.65;5.78;;;5.40;73.60;;;;;;5023454;28;20109;-73
2023/02/10 12:57:55;;;;;;;10.93;5.35;;;6.50;76.40;;;;;;5017974;28;20046;-74